Time;durP1;ratioP1;P1;durP2;ratioP2;P2;SDS_P1;SDS_P2;PMS_P1;PMS_P2;Temp;Humidity;BMP_temperature;BMP_pressure;BME280_temperature;BME280_humidity;BME280_pressure;Samples;Min_cycle;Max_cycle;Signal;HPM_P1;HPM_P2
2021/05/14 07:26:44;;;;;;;4.20;3.00;;;24.90;59.80;;;;;;4956340;23;20516;-94
2021/05/14 07:29:11;;;;;;;2.30;2.10;;;24.90;59.80;;;;;;4938417;29;20537;-95
2021/05/14 07:31:37;;;;;;;1.90;1.80;;;24.90;59.70;;;;;;4937358;29;20459;-95
2021/05/14 07:34:13;;;;;;;1.83;1.73;;;25.00;59.80;;;;;;4937086;29;20461;-93
2021/05/14 07:36:39;;;;;;;1.90;1.80;;;25.00;59.70;;;;;;4938605;29;20763;-89
2021/05/14 07:39:08;;;;;;;2.93;2.70;;;25.00;59.70;;;;;;4937049;29;20450;-89
2021/05/14 07:41:34;;;;;;;3.47;3.10;;;25.00;59.60;;;;;;4936574;29;20430;-89
2021/05/14 07:44:01;;;;;;;2.77;2.57;;;25.00;59.60;;;;;;4937819;29;20802;-89
2021/05/14 07:46:28;;;;;;;3.70;3.10;;;25.00;59.60;;;;;;4936549;29;20464;-89
2021/05/14 07:48:54;;;;;;;3.80;3.50;;;25.10;59.50;;;;;;4936414;29;20453;-89
2021/05/14 07:51:20;;;;;;;3.73;2.60;;;25.10;59.50;;;;;;4936588;29;20449;-89
2021/05/14 07:53:46;;;;;;;2.07;1.97;;;25.10;59.60;;;;;;4936323;29;20504;-88
2021/05/14 07:56:13;;;;;;;2.20;2.10;;;25.10;59.60;;;;;;4936633;29;20451;-88
2021/05/14 07:58:39;;;;;;;2.17;2.07;;;25.10;59.60;;;;;;4936548;29;20459;-89
2021/05/14 08:01:06;;;;;;;2.20;2.10;;;25.10;59.60;;;;;;4936333;29;20493;-88
2021/05/14 08:03:32;;;;;;;2.90;2.70;;;25.10;59.70;;;;;;4936228;29;20498;-88
2021/05/14 08:05:59;;;;;;;2.83;2.60;;;25.10;59.60;;;;;;4936473;29;20845;-89
2021/05/14 08:08:27;;;;;;;3.00;2.80;;;25.10;59.60;;;;;;4936276;29;20540;-89
2021/05/14 08:10:59;;;;;;;3.13;2.93;;;25.10;59.60;;;;;;4936284;29;20450;-88
2021/05/14 08:13:26;;;;;;;2.63;2.43;;;25.20;59.70;;;;;;4936031;29;20445;-89
2021/05/14 08:15:52;;;;;;;2.80;2.60;;;25.20;59.70;;;;;;4938321;29;20472;-88
2021/05/14 08:18:21;;;;;;;2.93;2.73;;;25.20;59.70;;;;;;4940075;29;20458;-88
2021/05/14 08:20:47;;;;;;;2.70;2.50;;;25.20;59.70;;;;;;4940313;29;20461;-88
2021/05/14 08:23:15;;;;;;;2.47;2.30;;;25.20;59.70;;;;;;4939937;29;20559;-89
2021/05/14 08:25:42;;;;;;;3.30;3.10;;;25.30;59.70;;;;;;4939995;29;20459;-88
2021/05/14 08:28:08;;;;;;;3.00;2.80;;;25.20;59.60;;;;;;4956926;29;20543;-89
2021/05/14 08:30:34;;;;;;;2.93;2.73;;;25.20;59.60;;;;;;4959278;29;20832;-88
2021/05/14 08:33:00;;;;;;;3.60;3.40;;;25.20;59.60;;;;;;4958726;29;20546;-89
2021/05/14 08:35:28;;;;;;;3.00;2.73;;;25.20;59.60;;;;;;4959074;29;20452;-89
2021/05/14 08:37:54;;;;;;;3.07;2.87;;;25.20;59.60;;;;;;4959403;29;20452;-89
2021/05/14 08:40:20;;;;;;;3.70;3.50;;;25.20;60.20;;;;;;4959262;29;20547;-88
2021/05/14 08:42:46;;;;;;;3.30;3.10;;;25.20;59.60;;;;;;4958768;29;20588;-88
2021/05/14 08:45:14;;;;;;;2.60;2.50;;;25.20;59.60;;;;;;4958809;29;20918;-89
2021/05/14 08:47:42;;;;;;;2.93;2.73;;;25.20;59.60;;;;;;4959213;29;20454;-89
2021/05/14 08:50:10;;;;;;;6.83;6.30;;;25.20;59.60;;;;;;4958671;29;20799;-85
2021/05/14 08:52:39;;;;;;;4.87;4.57;;;25.30;59.60;;;;;;4958292;29;20492;-86
2021/05/14 08:55:08;;;;;;;6.70;4.47;;;25.30;59.60;;;;;;4958300;29;20441;-89
2021/05/14 08:57:35;;;;;;;4.53;4.20;;;25.30;59.50;;;;;;4958593;29;20554;-88
2021/05/14 09:00:01;;;;;;;7.47;6.97;;;25.20;59.60;;;;;;4958500;29;20965;-88
2021/05/14 09:02:27;;;;;;;9.10;8.17;;;25.30;58.40;;;;;;4957804;29;20497;-88
2021/05/14 09:04:54;;;;;;;8.47;7.80;;;25.30;57.90;;;;;;4958757;29;20457;-88
2021/05/14 09:07:20;;;;;;;10.57;9.77;;;25.20;57.70;;;;;;4958825;29;20447;-88
2021/05/14 09:10:07;;;;;;;9.50;8.80;;;25.40;57.00;;;;;;4958280;29;20456;-88
2021/05/14 09:12:35;;;;;;;11.10;10.17;;;25.20;56.60;;;;;;4958344;29;20449;-88
2021/05/14 09:15:23;;;;;;;11.70;10.60;;;25.20;56.30;;;;;;4958425;29;20998;-88
2021/05/14 09:18:17;;;;;;;8.93;8.33;;;25.10;56.20;;;;;;4958492;29;20485;-88
2021/05/14 09:20:46;;;;;;;9.93;9.23;;;25.10;57.00;;;;;;4903331;29;20945;-88
2021/05/14 09:23:32;;;;;;;9.63;8.93;;;25.10;57.50;;;;;;4958278;29;20499;-88
2021/05/14 09:26:01;;;;;;;11.60;10.73;;;25.10;57.70;;;;;;4958087;29;20960;-87
2021/05/14 09:28:28;;;;;;;9.30;8.53;;;25.10;57.70;;;;;;4957299;28;20480;-88
2021/05/14 09:31:10;;;;;;;11.47;10.50;;;25.10;57.50;;;;;;4957854;29;20463;-89
2021/05/14 09:33:37;;;;;;;10.13;9.33;;;25.10;57.40;;;;;;4958088;29;20433;-89
2021/05/14 09:36:06;;;;;;;8.03;7.43;;;25.10;57.60;;;;;;4958008;29;20475;-88
2021/05/14 09:38:47;;;;;;;9.17;8.50;;;25.10;57.60;;;;;;4957747;29;20444;-88
2021/05/14 09:41:28;;;;;;;8.20;7.60;;;25.10;57.70;;;;;;4957921;29;20449;-88
2021/05/14 09:44:06;;;;;;;8.80;8.00;;;25.10;57.70;;;;;;4957815;29;20921;-86
2021/05/14 09:46:35;;;;;;;7.93;7.33;;;25.10;57.80;;;;;;4957704;29;20449;-86
2021/05/14 09:49:04;;;;;;;7.90;7.23;;;25.20;57.90;;;;;;4954616;29;20520;-86
2021/05/14 09:51:32;;;;;;;7.17;6.60;;;25.20;58.00;;;;;;4943379;29;20537;-86
2021/05/14 09:54:21;;;;;;;8.03;7.33;;;25.20;58.10;;;;;;4938543;29;20445;-91
2021/05/14 09:57:21;;;;;;;6.93;6.53;;;25.20;58.00;;;;;;4938392;29;20540;-85
2021/05/14 09:59:49;;;;;;;8.00;7.23;;;25.20;58.10;;;;;;4950522;29;20809;-96
2021/05/14 10:02:23;;;;;;;7.17;6.70;;;25.20;58.10;;;;;;4946908;29;20498;-95
2021/05/14 10:04:50;;;;;;;7.40;6.83;;;25.30;58.20;;;;;;4945484;29;20448;-87
2021/05/14 10:07:17;;;;;;;7.67;7.00;;;25.20;58.10;;;;;;4957585;29;20954;-88
2021/05/14 10:09:45;;;;;;;6.63;6.13;;;25.20;58.20;;;;;;4957597;29;20800;-89
2021/05/14 10:12:14;;;;;;;7.60;6.90;;;25.30;58.20;;;;;;4957087;29;20447;-89
2021/05/14 10:14:41;;;;;;;7.60;7.00;;;25.30;58.20;;;;;;4957436;29;20473;-89
2021/05/14 10:17:08;;;;;;;7.00;6.40;;;25.30;58.20;;;;;;4957682;29;20453;-89
2021/05/14 10:19:36;;;;;;;7.60;7.00;;;25.40;58.20;;;;;;4957196;29;20485;-88
2021/05/14 10:22:03;;;;;;;8.13;7.53;;;25.40;58.30;;;;;;4957047;29;20492;-88
2021/05/14 10:24:40;;;;;;;9.87;9.17;;;25.40;58.30;;;;;;4957085;29;20449;-89
2021/05/14 10:27:24;;;;;;;8.97;8.20;;;25.40;58.50;;;;;;4956821;29;20564;-89
2021/05/14 10:29:52;;;;;;;12.20;8.90;;;25.40;59.00;;;;;;4956909;29;20495;-89
2021/05/14 10:32:50;;;;;;;11.30;10.10;;;25.50;59.30;;;;;;4956688;29;20499;-89
2021/05/14 10:35:18;;;;;;;10.70;9.60;;;25.50;59.50;;;;;;4958800;29;20536;-86
2021/05/14 10:37:45;;;;;;;9.23;8.27;;;25.50;59.80;;;;;;4959249;29;20454;-85
2021/05/14 10:40:44;;;;;;;9.83;7.90;;;25.60;59.20;;;;;;4956628;28;20956;-91
2021/05/14 10:43:12;;;;;;;8.23;7.43;;;25.70;58.80;;;;;;4956425;29;20992;-86
2021/05/14 10:45:41;;;;;;;7.60;6.23;;;25.60;58.80;;;;;;4956216;29;20488;-87
2021/05/14 10:48:17;;;;;;;9.40;7.00;;;25.60;58.60;;;;;;4956454;29;20536;-89
2021/05/14 10:50:45;;;;;;;11.27;8.30;;;25.60;58.30;;;;;;4956542;29;20449;-89
2021/05/14 10:53:31;;;;;;;9.50;6.70;;;25.60;58.10;;;;;;4956116;29;20458;-89
2021/05/14 10:56:25;;;;;;;6.43;5.83;;;25.60;57.70;;;;;;4956568;29;20449;-89
2021/05/14 10:58:52;;;;;;;5.27;4.80;;;25.60;57.60;;;;;;4956491;29;20460;-89
2021/05/14 11:01:55;;;;;;;9.00;5.97;;;25.50;56.90;;;;;;5111447;27;20524;-94
2021/05/14 11:04:41;;;;;;;6.40;4.53;;;25.60;57.30;;;;;;5111931;28;20434;-91
2021/05/14 11:07:27;;;;;;;6.40;5.90;;;25.50;56.70;;;;;;5111743;28;20457;-91
2021/05/14 11:10:42;;;;;;;4.60;4.20;;;25.50;57.10;;;;;;5111244;28;20450;-92
2021/05/14 11:13:34;;;;;;;4.30;4.00;;;25.60;57.10;;;;;;5112013;28;20498;-92
2021/05/14 11:16:34;;;;;;;4.33;4.03;;;25.60;56.40;;;;;;5111933;28;20504;-92
2021/05/14 11:19:17;;;;;;;3.63;3.43;;;25.50;56.70;;;;;;5112146;28;20820;-92
2021/05/14 11:22:12;;;;;;;4.20;3.90;;;25.60;56.70;;;;;;5111782;28;20882;-93
2021/05/14 11:24:48;;;;;;;3.70;3.40;;;25.60;56.90;;;;;;5112837;28;20913;-92
2021/05/14 11:27:16;;;;;;;3.70;3.40;;;25.60;57.00;;;;;;5112228;28;20446;-93
2021/05/14 11:29:45;;;;;;;4.20;3.80;;;25.60;57.00;;;;;;5111725;28;20489;-92
2021/05/14 11:32:24;;;;;;;3.10;2.90;;;25.60;56.80;;;;;;5111236;28;20530;-92
2021/05/14 11:35:02;;;;;;;3.37;3.17;;;25.60;56.50;;;;;;5111568;28;20449;-92
2021/05/14 11:37:30;;;;;;;3.87;3.60;;;25.60;56.60;;;;;;5112545;28;20438;-93
2021/05/14 11:39:58;;;;;;;3.90;2.70;;;25.60;55.80;;;;;;5112781;28;20474;-94
2021/05/14 11:42:26;;;;;;;2.47;2.37;;;25.60;56.20;;;;;;5111412;28;20457;-92
2021/05/14 11:45:00;;;;;;;3.13;2.83;;;25.60;56.40;;;;;;5111447;28;20470;-91
2021/05/14 11:47:28;;;;;;;3.00;2.80;;;25.60;56.30;;;;;;5111257;28;20465;-88
2021/05/14 11:49:56;;;;;;;3.20;3.00;;;25.60;56.40;;;;;;5111018;28;20517;-89
2021/05/14 11:52:41;;;;;;;2.70;2.50;;;25.60;56.30;;;;;;5110470;28;20487;-89
2021/05/14 11:55:11;;;;;;;3.67;2.60;;;25.60;56.10;;;;;;5110913;28;20425;-89
2021/05/14 11:57:38;;;;;;;2.90;2.57;;;25.60;55.40;;;;;;5111800;28;20439;-89
2021/05/14 12:00:08;;;;;;;3.70;2.43;;;25.50;55.40;;;;;;5111497;28;20494;-90
2021/05/14 12:02:36;;;;;;;6.10;2.80;;;25.60;55.70;;;;;;5111462;28;20435;-89
2021/05/14 12:05:04;;;;;;;2.30;2.10;;;25.50;55.70;;;;;;5110474;28;20434;-89
2021/05/14 12:07:30;;;;;;;9.20;2.70;;;25.50;55.70;;;;;;5110428;28;20446;-89
2021/05/14 12:09:58;;;;;;;4.13;2.60;;;25.70;55.80;;;;;;5110349;28;20944;-89
2021/05/14 12:12:24;;;;;;;5.53;2.70;;;25.60;55.90;;;;;;5098563;28;20489;-89
2021/05/14 12:14:51;;;;;;;4.33;2.20;;;25.60;56.00;;;;;;5096753;28;20826;-89
2021/05/14 12:17:18;;;;;;;5.20;2.50;;;25.60;56.10;;;;;;5096700;28;20435;-88
2021/05/14 12:19:47;;;;;;;2.40;2.20;;;25.60;56.20;;;;;;5096628;28;20495;-89
2021/05/14 12:22:14;;;;;;;4.10;2.23;;;25.60;56.30;;;;;;5096410;28;20939;-89
2021/05/14 12:24:44;;;;;;;2.40;2.20;;;25.70;56.40;;;;;;5096658;28;20533;-89
2021/05/14 12:27:10;;;;;;;3.30;2.10;;;25.70;56.40;;;;;;5096375;28;20454;-89
2021/05/14 12:29:37;;;;;;;6.73;2.13;;;25.70;56.40;;;;;;5096202;28;20443;-89
2021/05/14 12:32:04;;;;;;;3.17;2.40;;;25.70;56.40;;;;;;5096077;28;21004;-89
2021/05/14 12:34:31;;;;;;;7.33;2.10;;;25.70;56.50;;;;;;5096129;28;20496;-89
2021/05/14 12:36:59;;;;;;;2.60;2.10;;;25.70;56.50;;;;;;5096127;28;20442;-89
2021/05/14 12:39:26;;;;;;;4.10;2.30;;;25.70;56.80;;;;;;5096283;28;20471;-89
2021/05/14 12:41:56;;;;;;;3.37;2.50;;;25.70;56.60;;;;;;5095886;28;21065;-89
2021/05/14 12:44:24;;;;;;;4.23;2.33;;;25.70;56.70;;;;;;5095775;28;20986;-89
2021/05/14 12:47:05;;;;;;;3.03;1.90;;;25.70;56.80;;;;;;5095826;28;20451;-89
2021/05/14 12:49:33;;;;;;;4.60;2.37;;;25.70;56.80;;;;;;5095982;28;20834;-89
2021/05/14 12:52:02;;;;;;;2.03;1.80;;;25.70;56.90;;;;;;5096000;28;20446;-89
2021/05/14 12:54:29;;;;;;;2.10;1.90;;;25.70;57.00;;;;;;5096014;28;20443;-89
2021/05/14 12:56:55;;;;;;;2.43;1.90;;;25.70;56.90;;;;;;5095991;28;20431;-89
2021/05/14 12:59:22;;;;;;;2.73;2.20;;;25.70;56.90;;;;;;5095360;28;20488;-89
2021/05/14 13:01:49;;;;;;;3.13;1.87;;;25.70;57.00;;;;;;5095814;28;20454;-89
2021/05/14 13:04:16;;;;;;;2.83;1.70;;;25.70;57.00;;;;;;5095618;28;20436;-92
2021/05/14 13:06:42;;;;;;;2.00;1.80;;;25.80;57.00;;;;;;5095673;28;20443;-89
2021/05/14 13:09:10;;;;;;;1.60;1.50;;;25.70;57.10;;;;;;5095542;28;20448;-89
2021/05/14 13:11:39;;;;;;;2.83;1.97;;;25.80;57.10;;;;;;5095268;28;20435;-89
2021/05/14 13:14:06;;;;;;;2.37;1.77;;;25.80;57.20;;;;;;5095538;28;20443;-89
2021/05/14 13:16:33;;;;;;;2.20;2.03;;;25.80;57.20;;;;;;5095462;28;20446;-89
2021/05/14 13:19:00;;;;;;;2.50;2.20;;;25.80;57.20;;;;;;5095469;28;20472;-89
2021/05/14 13:21:27;;;;;;;2.40;2.13;;;25.80;57.30;;;;;;5095269;28;20487;-89
2021/05/14 13:23:54;;;;;;;3.30;2.10;;;25.80;57.20;;;;;;5094400;28;20455;-89
2021/05/14 13:26:21;;;;;;;2.30;1.80;;;25.80;57.20;;;;;;5095351;28;20447;-89
2021/05/14 13:28:48;;;;;;;2.23;2.03;;;25.80;57.20;;;;;;5095610;28;20526;-89
2021/05/14 13:31:18;;;;;;;1.80;1.70;;;25.80;57.20;;;;;;5094979;28;20450;-89
2021/05/14 13:33:44;;;;;;;1.77;1.67;;;25.80;57.20;;;;;;5095168;28;20817;-89
2021/05/14 13:36:11;;;;;;;1.90;1.70;;;25.80;57.90;;;;;;5095167;28;20447;-89
2021/05/14 13:38:37;;;;;;;1.90;1.63;;;25.80;57.20;;;;;;5095174;28;20544;-89
2021/05/14 13:41:04;;;;;;;2.03;1.83;;;25.80;57.30;;;;;;5094721;28;20490;-88
2021/05/14 13:43:30;;;;;;;2.60;1.60;;;25.80;57.30;;;;;;5094758;28;20531;-89
2021/05/14 13:45:57;;;;;;;1.60;1.47;;;25.80;57.30;;;;;;5094892;28;20468;-89
2021/05/14 13:48:24;;;;;;;1.70;1.60;;;25.90;57.30;;;;;;5094806;28;20446;-88
2021/05/14 13:50:51;;;;;;;2.50;1.90;;;25.80;57.30;;;;;;5094798;28;20460;-88
2021/05/14 13:53:17;;;;;;;1.67;1.57;;;25.80;57.30;;;;;;5094481;28;20436;-89
2021/05/14 13:55:44;;;;;;;1.90;1.80;;;25.80;57.30;;;;;;5094671;28;20451;-90
2021/05/14 13:58:11;;;;;;;2.07;1.80;;;25.80;57.30;;;;;;5094696;28;20451;-89
2021/05/14 14:00:38;;;;;;;3.30;2.00;;;25.90;57.30;;;;;;5094020;28;20495;-89
2021/05/14 14:03:05;;;;;;;1.70;1.60;;;25.80;57.30;;;;;;5094642;28;20523;-89
2021/05/14 14:05:31;;;;;;;2.00;1.80;;;25.80;57.40;;;;;;5094709;28;20518;-89
2021/05/14 14:07:58;;;;;;;1.90;1.80;;;25.80;57.30;;;;;;5094630;28;20448;-89
2021/05/14 14:10:24;;;;;;;2.00;1.70;;;25.80;57.30;;;;;;5094520;28;20460;-89
2021/05/14 14:12:51;;;;;;;1.83;1.73;;;25.80;57.30;;;;;;5094266;28;20440;-89
2021/05/14 14:15:18;;;;;;;3.30;2.13;;;25.80;57.30;;;;;;5094098;28;20865;-87
2021/05/14 14:17:44;;;;;;;2.40;2.10;;;25.80;57.40;;;;;;5094315;28;20451;-89
2021/05/14 14:20:13;;;;;;;1.77;1.67;;;25.80;57.20;;;;;;5094069;28;20486;-89
2021/05/14 14:22:40;;;;;;;2.43;2.23;;;25.80;57.20;;;;;;5094425;28;20444;-89
2021/05/14 14:25:09;;;;;;;2.07;1.87;;;25.80;56.10;;;;;;5094027;28;20436;-89
2021/05/14 14:27:36;;;;;;;1.70;1.60;;;25.80;55.60;;;;;;5094235;28;20443;-89
2021/05/14 14:30:04;;;;;;;1.70;1.60;;;25.70;56.00;;;;;;5094323;28;20448;-89
2021/05/14 14:32:30;;;;;;;1.40;1.30;;;25.70;56.50;;;;;;5094166;28;20466;-89
2021/05/14 14:34:56;;;;;;;1.87;1.77;;;25.80;57.20;;;;;;5093785;28;20446;-89
2021/05/14 14:37:23;;;;;;;1.83;1.73;;;25.70;55.70;;;;;;5093841;28;20530;-90
2021/05/14 14:39:50;;;;;;;2.00;1.90;;;25.70;55.50;;;;;;5093840;28;20483;-89
2021/05/14 14:42:16;;;;;;;2.50;1.80;;;25.70;55.40;;;;;;5093915;28;20438;-89
2021/05/14 14:44:43;;;;;;;3.00;2.77;;;25.80;55.60;;;;;;5094035;28;20474;-90
2021/05/14 14:47:09;;;;;;;1.93;1.80;;;25.60;54.90;;;;;;5094097;28;20484;-89
2021/05/14 14:49:35;;;;;;;4.80;1.93;;;25.60;54.10;;;;;;5093967;28;20445;-89
2021/05/14 14:52:02;;;;;;;2.23;2.03;;;25.60;54.20;;;;;;5093904;28;20465;-90
2021/05/14 14:54:29;;;;;;;4.67;1.67;;;25.60;54.10;;;;;;5094016;28;20444;-89
2021/05/14 14:56:55;;;;;;;2.17;2.00;;;25.60;54.20;;;;;;5093813;28;20439;-89
2021/05/14 14:59:21;;;;;;;3.87;2.33;;;25.60;54.30;;;;;;5094109;28;20490;-89
2021/05/14 15:01:48;;;;;;;8.30;2.27;;;25.60;54.70;;;;;;5093929;28;20496;-85
2021/05/14 15:04:14;;;;;;;3.60;1.73;;;25.50;54.80;;;;;;5093632;28;20454;-85
2021/05/14 15:06:40;;;;;;;1.73;1.63;;;25.50;55.10;;;;;;5093466;28;20446;-85
2021/05/14 15:09:07;;;;;;;7.00;1.40;;;25.50;55.30;;;;;;5093613;28;20443;-85
2021/05/14 15:11:34;;;;;;;1.73;1.63;;;25.50;55.40;;;;;;5093394;28;20447;-85
2021/05/14 15:14:01;;;;;;;1.93;1.80;;;25.50;55.40;;;;;;5093532;28;20440;-85
2021/05/14 15:16:27;;;;;;;7.70;2.63;;;25.50;55.50;;;;;;5093552;28;20491;-86
2021/05/14 15:18:54;;;;;;;18.87;7.40;;;25.50;55.60;;;;;;5094132;28;20447;-85
2021/05/14 15:21:20;;;;;;;46.33;14.50;;;25.60;55.80;;;;;;5093233;28;20487;-85
2021/05/14 15:23:48;;;;;;;53.20;21.83;;;25.50;55.90;;;;;;5093422;28;20449;-86
2021/05/14 15:26:15;;;;;;;48.10;20.20;;;25.50;56.10;;;;;;5093832;28;20798;-91
2021/05/14 15:28:43;;;;;;;53.03;22.73;;;25.40;56.20;;;;;;5542750;22;20521;-96
2021/05/14 15:31:12;;;;;;;62.63;24.20;;;25.40;56.50;;;;;;5039111;28;20464;-96
2021/05/14 15:37:14;;;;;;;51.70;21.50;;;25.40;57.00;;;;;;4979264;28;20495;-96
2021/05/14 15:39:40;;;;;;;55.70;20.53;;;25.40;57.10;;;;;;4980476;28;20452;-87
2021/05/14 15:42:10;;;;;;;40.47;18.00;;;25.40;57.10;;;;;;5020178;22;20572;-96
2021/05/14 15:44:40;;;;;;;44.93;19.57;;;25.40;56.90;;;;;;5046824;28;20456;-96
2021/05/14 15:47:48;;;;;;;43.43;18.43;;;25.40;57.20;;;;;;5059855;28;20413;-96
2021/05/14 15:54:17;;;;;;;26.23;14.63;;;25.40;57.10;;;;;;5021630;28;20495;-96
2021/05/14 16:31:04;;;;;;;11.60;7.43;;;25.30;57.50;;;;;;5143381;27;876079;-93
2021/05/14 16:33:31;;;;;;;17.20;7.70;;;25.70;57.20;;;;;;5153681;27;20627;-87
2021/05/14 16:35:57;;;;;;;16.13;9.03;;;25.60;57.20;;;;;;5153275;27;20472;-88
2021/05/14 16:38:24;;;;;;;17.03;7.00;;;25.60;57.20;;;;;;5152460;27;20437;-90
2021/05/14 16:40:58;;;;;;;15.70;6.73;;;25.70;57.60;;;;;;5153206;27;20535;-95
2021/05/14 16:43:24;;;;;;;23.90;8.60;;;25.50;57.60;;;;;;5151058;27;20432;-88
2021/05/14 16:45:51;;;;;;;22.70;8.27;;;25.50;57.50;;;;;;5132274;28;20439;-86
2021/05/14 16:48:18;;;;;;;15.60;7.57;;;25.50;57.50;;;;;;5132247;28;20797;-87
2021/05/14 16:50:45;;;;;;;18.67;8.73;;;25.50;57.60;;;;;;5133514;28;20824;-88
2021/05/14 16:53:11;;;;;;;16.87;6.70;;;25.40;57.70;;;;;;5133818;28;20445;-88
2021/05/14 16:55:37;;;;;;;19.00;7.10;;;25.40;57.80;;;;;;5134376;28;20523;-88
2021/05/14 16:58:04;;;;;;;13.63;7.50;;;25.40;57.70;;;;;;5134217;28;20459;-88
2021/05/14 17:00:30;;;;;;;10.23;7.20;;;25.40;57.90;;;;;;5133955;28;20485;-87
2021/05/14 17:02:59;;;;;;;17.33;7.70;;;25.40;57.90;;;;;;5133594;28;20894;-88
2021/05/14 17:05:26;;;;;;;17.40;7.67;;;25.40;58.00;;;;;;5134224;28;20505;-87
2021/05/14 17:07:52;;;;;;;14.57;6.33;;;25.40;58.10;;;;;;5134595;28;20523;-88
2021/05/14 17:10:18;;;;;;;21.30;7.67;;;25.40;58.00;;;;;;5134391;28;20445;-87
2021/05/14 17:12:50;;;;;;;13.73;7.33;;;25.40;58.10;;;;;;5134227;28;20441;-87
2021/05/14 17:15:16;;;;;;;11.60;6.30;;;25.40;58.10;;;;;;5133628;28;20472;-88
2021/05/14 17:17:43;;;;;;;18.40;7.70;;;25.40;58.20;;;;;;5133864;28;20833;-90
2021/05/14 17:20:10;;;;;;;12.93;6.53;;;25.40;58.20;;;;;;5134303;28;20485;-88
2021/05/14 17:22:37;;;;;;;17.00;7.40;;;25.40;58.20;;;;;;5133964;28;20442;-88
2021/05/14 17:25:05;;;;;;;10.20;5.90;;;25.40;58.20;;;;;;5134178;28;20928;-89
2021/05/14 17:27:33;;;;;;;9.93;6.00;;;25.40;58.30;;;;;;5133564;28;20532;-88
2021/05/14 17:29:59;;;;;;;16.30;7.50;;;25.40;58.30;;;;;;5131757;27;20834;-89
2021/05/14 17:32:26;;;;;;;10.63;6.80;;;25.40;58.30;;;;;;5119863;28;20886;-88
2021/05/14 17:34:52;;;;;;;6.20;5.03;;;25.40;58.30;;;;;;5120270;28;20470;-88
2021/05/14 17:37:18;;;;;;;7.30;4.50;;;25.40;58.30;;;;;;5117045;28;20871;-87
2021/05/14 17:39:48;;;;;;;11.00;5.40;;;25.40;59.50;;;;;;5117348;28;20572;-89
2021/05/14 17:42:15;;;;;;;6.67;4.30;;;25.40;59.00;;;;;;5117945;28;20439;-88
2021/05/14 17:44:42;;;;;;;7.10;4.13;;;25.40;59.00;;;;;;5117713;28;20824;-90
2021/05/14 17:47:12;;;;;;;6.73;4.30;;;25.40;59.00;;;;;;5117689;28;20450;-89
2021/05/14 17:49:39;;;;;;;10.63;4.37;;;25.40;59.70;;;;;;5117418;28;20537;-89
2021/05/14 17:52:06;;;;;;;7.50;3.80;;;25.40;59.10;;;;;;5117785;28;20767;-89
2021/05/14 17:54:32;;;;;;;9.63;4.73;;;25.40;59.10;;;;;;5116853;28;20435;-89
2021/05/14 17:57:00;;;;;;;6.60;3.80;;;25.30;59.10;;;;;;5117851;28;20929;-88
2021/05/14 17:59:27;;;;;;;5.83;4.23;;;25.30;58.80;;;;;;5117908;28;20842;-89
2021/05/14 18:01:53;;;;;;;9.63;4.83;;;25.30;58.70;;;;;;5117516;28;20433;-89
2021/05/14 18:04:19;;;;;;;9.87;4.63;;;25.30;58.60;;;;;;5116239;28;20801;-89
2021/05/14 18:06:46;;;;;;;6.63;4.30;;;25.40;58.60;;;;;;5119078;28;20488;-89
2021/05/14 18:09:13;;;;;;;5.67;4.50;;;25.30;58.60;;;;;;5116125;28;20487;-90
2021/05/14 18:11:39;;;;;;;7.30;4.37;;;25.30;58.60;;;;;;5116397;28;20963;-89
2021/05/14 18:14:06;;;;;;;6.50;3.77;;;25.40;58.50;;;;;;5115980;28;20461;-88
2021/05/14 18:16:33;;;;;;;6.23;4.30;;;25.30;58.50;;;;;;5116018;28;20441;-87
2021/05/14 18:19:33;;;;;;;4.97;3.80;;;25.30;58.50;;;;;;5115907;28;20474;-89
2021/05/14 18:21:55;;;;;;;5.07;3.50;;;25.40;58.40;;;;;;5119545;28;20479;-89
2021/05/14 18:24:21;;;;;;;6.17;3.77;;;25.40;58.40;;;;;;5115959;28;20438;-89
2021/05/14 18:26:48;;;;;;;15.30;4.43;;;25.40;58.50;;;;;;5116272;28;20445;-89
2021/05/14 18:29:15;;;;;;;6.70;3.40;;;25.40;58.50;;;;;;5115462;28;20992;-89
2021/05/14 18:31:41;;;;;;;8.43;3.93;;;25.40;58.40;;;;;;5116038;28;20612;-89
2021/05/14 18:34:09;;;;;;;5.10;4.13;;;25.40;58.50;;;;;;5116085;28;20535;-90
2021/05/14 18:36:36;;;;;;;6.50;3.63;;;25.40;58.50;;;;;;5116174;28;20445;-90
2021/05/14 18:39:03;;;;;;;7.20;3.70;;;25.40;58.50;;;;;;5115517;28;20473;-90
2021/05/14 18:41:30;;;;;;;5.97;3.80;;;25.50;58.60;;;;;;5115840;28;20448;-90
2021/05/14 18:43:58;;;;;;;4.17;3.80;;;25.50;58.60;;;;;;5115165;28;20714;-90
2021/05/14 18:46:25;;;;;;;6.63;4.50;;;25.50;58.60;;;;;;5116219;28;20820;-90
2021/05/14 18:48:52;;;;;;;6.57;3.73;;;25.50;58.60;;;;;;5115673;28;20781;-89
2021/05/14 18:51:18;;;;;;;8.87;3.33;;;25.50;58.60;;;;;;5115382;28;20542;-88
2021/05/14 18:53:44;;;;;;;3.40;3.10;;;25.50;58.60;;;;;;5115512;28;20438;-89
2021/05/14 18:56:11;;;;;;;4.33;3.67;;;25.50;58.60;;;;;;5116385;28;20494;-87
2021/05/14 18:58:37;;;;;;;5.77;3.33;;;25.50;58.60;;;;;;5115385;28;20445;-87
2021/05/14 19:01:04;;;;;;;8.20;3.27;;;25.50;58.70;;;;;;5115265;28;20444;-88
2021/05/14 19:03:32;;;;;;;3.83;2.70;;;25.50;58.60;;;;;;5115524;28;20532;-89
2021/05/14 19:05:58;;;;;;;3.17;2.70;;;25.50;58.60;;;;;;5115216;28;20446;-90
2021/05/14 19:08:24;;;;;;;3.20;2.90;;;25.60;58.70;;;;;;5115992;28;20534;-89
2021/05/14 19:10:51;;;;;;;4.43;3.30;;;25.50;58.60;;;;;;5115086;28;20522;-89
2021/05/14 19:13:18;;;;;;;5.33;3.07;;;25.50;58.60;;;;;;5115364;28;20465;-90
2021/05/14 19:15:45;;;;;;;5.20;3.13;;;25.50;58.70;;;;;;5097618;28;20438;-88
2021/05/14 19:18:12;;;;;;;5.90;3.57;;;25.50;58.70;;;;;;5116200;28;20437;-91
2021/05/14 19:20:41;;;;;;;4.60;2.57;;;25.50;58.60;;;;;;5123653;28;20493;-89
2021/05/14 19:45:23;;;;;;;22.87;2.77;;;25.50;59.10;;;;;;5013403;28;20446;-87
2021/05/14 19:47:51;;;;;;;4.63;2.77;;;25.50;58.70;;;;;;5034272;28;20794;-86
2021/05/14 19:50:18;;;;;;;3.50;2.77;;;25.70;58.80;;;;;;5034144;28;20949;-87
2021/05/14 19:52:45;;;;;;;2.87;2.67;;;25.50;58.80;;;;;;5033806;28;20958;-86
2021/05/14 19:55:12;;;;;;;3.40;2.63;;;25.60;59.00;;;;;;5033476;28;21027;-86
2021/05/14 19:57:38;;;;;;;3.27;2.87;;;25.50;58.90;;;;;;5033709;28;20949;-87
2021/05/14 20:00:06;;;;;;;3.03;2.80;;;25.70;59.00;;;;;;5033669;28;20489;-87
2021/05/14 20:02:33;;;;;;;4.63;2.50;;;25.60;59.00;;;;;;5033556;28;20525;-87
2021/05/14 20:04:59;;;;;;;2.80;2.60;;;25.60;59.00;;;;;;5033900;28;20442;-86
2021/05/14 20:07:25;;;;;;;3.63;3.10;;;25.70;59.10;;;;;;5033802;28;20448;-87
2021/05/14 20:09:52;;;;;;;3.47;2.67;;;25.50;59.00;;;;;;5033711;28;20517;-87
2021/05/14 20:12:19;;;;;;;3.00;2.70;;;25.70;59.10;;;;;;5033655;28;20442;-87
2021/05/14 20:14:45;;;;;;;4.43;2.67;;;25.60;59.10;;;;;;5034029;28;20542;-87
2021/05/14 20:17:11;;;;;;;2.97;2.40;;;25.50;59.10;;;;;;5033675;28;20438;-86
2021/05/14 20:19:37;;;;;;;3.20;2.40;;;25.50;59.10;;;;;;5033781;28;20536;-86
2021/05/14 20:22:04;;;;;;;3.00;2.63;;;25.70;59.20;;;;;;5033505;28;20833;-88
2021/05/14 20:24:30;;;;;;;2.83;2.50;;;25.60;59.10;;;;;;5054098;28;20468;-89
2021/05/14 20:26:57;;;;;;;6.23;2.80;;;25.50;59.10;;;;;;5073464;28;20450;-92
2021/05/14 20:29:24;;;;;;;2.87;2.20;;;25.50;59.10;;;;;;5073569;28;20535;-88
2021/05/14 20:31:50;;;;;;;2.73;2.53;;;25.50;59.10;;;;;;5073213;28;20440;-89
2021/05/14 20:34:17;;;;;;;3.63;2.53;;;25.50;59.10;;;;;;5073245;28;20439;-88
2021/05/14 20:36:46;;;;;;;4.23;2.67;;;25.70;59.20;;;;;;5073264;28;20494;-88
2021/05/14 20:39:25;;;;;;;4.57;2.50;;;25.60;59.20;;;;;;5073311;28;20528;-88
2021/05/14 20:41:51;;;;;;;2.50;2.30;;;25.60;59.10;;;;;;5073650;28;20792;-88
2021/05/14 20:44:19;;;;;;;2.60;2.40;;;25.60;59.20;;;;;;5073342;28;20830;-89
2021/05/14 20:46:45;;;;;;;3.30;3.00;;;25.50;59.10;;;;;;5073051;28;20539;-88
2021/05/14 20:49:12;;;;;;;2.30;2.10;;;25.60;59.20;;;;;;5073696;28;20451;-88
2021/05/14 20:51:40;;;;;;;3.10;2.57;;;25.60;59.20;;;;;;5073015;28;20436;-87
2021/05/14 20:54:07;;;;;;;2.70;2.50;;;25.60;59.20;;;;;;5073273;28;20436;-85
2021/05/14 20:56:35;;;;;;;2.67;2.47;;;25.60;59.20;;;;;;5073522;28;20842;-88
2021/05/14 20:59:02;;;;;;;2.37;2.17;;;25.70;59.20;;;;;;5073247;28;20484;-87
2021/05/14 21:01:30;;;;;;;3.93;2.80;;;25.60;59.20;;;;;;5073167;28;20530;-86
2021/05/14 21:03:56;;;;;;;3.40;3.00;;;25.60;59.20;;;;;;5073234;28;20442;-87
2021/05/14 21:06:22;;;;;;;2.37;2.17;;;25.60;59.20;;;;;;5074967;28;20447;-89
2021/05/14 21:08:49;;;;;;;2.13;2.00;;;25.60;59.20;;;;;;5076792;28;20488;-87
2021/05/14 21:11:16;;;;;;;2.40;2.20;;;25.70;59.20;;;;;;5077690;28;20441;-87
2021/05/14 21:13:46;;;;;;;3.30;2.70;;;25.50;58.90;;;;;;5076559;28;20518;-87
2021/05/14 21:16:13;;;;;;;2.47;2.20;;;25.60;59.00;;;;;;5077128;28;20840;-88
2021/05/14 21:18:40;;;;;;;2.77;2.57;;;25.50;58.90;;;;;;5077006;28;20460;-86
2021/05/14 21:21:06;;;;;;;2.40;2.20;;;25.50;58.90;;;;;;5076696;28;20439;-86
2021/05/14 21:23:33;;;;;;;2.63;2.10;;;25.50;58.90;;;;;;5076573;28;20864;-86
2021/05/14 21:25:59;;;;;;;2.50;2.30;;;25.50;58.90;;;;;;5077240;28;20432;-88